createdAt,value
2022-10-30T00:01:30.217Z,11.73
2022-10-30T00:03:58.811Z,10.68
2022-10-30T00:06:33.147Z,11.80
2022-10-30T00:09:01.889Z,10.63
2022-10-30T00:11:30.501Z,12.02
2022-10-30T00:13:59.668Z,10.82
2022-10-30T00:16:28.436Z,12.43
2022-10-30T00:18:57.129Z,10.75
2022-10-30T00:21:25.577Z,10.60
2022-10-30T00:23:54.237Z,10.60
2022-10-30T00:26:24.100Z,11.80
2022-10-30T00:28:56.635Z,11.55
2022-10-30T00:31:25.506Z,11.73
2022-10-30T00:33:55.390Z,11.57
2022-10-30T00:36:24.322Z,11.85
2022-10-30T00:38:53.216Z,10.35
2022-10-30T00:41:24.409Z,10.80
2022-10-30T00:43:53.447Z,10.55
2022-10-30T00:46:28.507Z,11.75
2022-10-30T00:49:12.533Z,12.30
2022-10-30T00:51:47.712Z,12.13
2022-10-30T00:54:18.695Z,11.40
2022-10-30T00:56:49.140Z,10.45
2022-10-30T00:59:25.786Z,11.45
2022-10-30T01:01:54.714Z,10.43
2022-10-30T01:04:29.089Z,11.32
2022-10-30T01:07:05.991Z,10.55
2022-10-30T01:09:34.450Z,11.75
2022-10-30T01:12:03.109Z,10.82
2022-10-30T01:14:33.033Z,10.43
2022-10-30T01:17:19.826Z,11.63
2022-10-30T01:20:44.230Z,10.02
2022-10-30T01:23:18.838Z,11.45
2022-10-30T01:25:53.886Z,10.90
2022-10-30T01:28:58.410Z,11.13
2022-10-30T01:31:41.827Z,11.30
2022-10-30T01:34:33.853Z,10.85
2022-10-30T01:37:11.125Z,11.18
2022-10-30T01:39:42.118Z,10.93
2022-10-30T01:42:43.841Z,11.00
2022-10-30T01:45:33.994Z,11.15
2022-10-30T01:48:21.480Z,11.18
2022-10-30T01:50:53.820Z,10.98
2022-10-30T01:53:37.269Z,11.75
2022-10-30T01:56:28.001Z,9.85
2022-10-30T01:59:12.657Z,12.18
2022-10-30T02:01:47.242Z,11.35
2022-10-30T02:04:17.084Z,11.20
2022-10-30T02:06:46.363Z,11.18
2022-10-30T02:09:16.413Z,10.80
2022-10-30T02:11:52.572Z,11.75
2022-10-30T02:14:31.375Z,11.88
2022-10-30T02:17:04.399Z,11.82
2022-10-30T02:19:32.936Z,10.93
2022-10-30T02:22:04.977Z,11.90
2022-10-30T02:24:33.767Z,11.48
2022-10-30T02:27:02.548Z,12.50
2022-10-30T02:29:32.502Z,11.25
2022-10-30T02:32:12.941Z,10.02
2022-10-30T02:34:43.473Z,12.30
2022-10-30T02:39:41.551Z,11.60
2022-10-30T02:42:09.916Z,11.18
2022-10-30T02:44:38.614Z,11.73
2022-10-30T02:47:07.110Z,11.10
2022-10-30T02:49:35.778Z,12.02
2022-10-30T02:52:06.989Z,11.65
2022-10-30T02:54:36.987Z,11.80
2022-10-30T02:57:06.276Z,9.85
2022-10-30T02:59:35.061Z,10.30
2022-10-30T03:02:03.975Z,10.77
2022-10-30T03:04:32.812Z,11.63
2022-10-30T03:07:01.843Z,10.77
2022-10-30T03:09:30.379Z,11.35
2022-10-30T03:11:59.968Z,11.93
2022-10-30T03:14:33.323Z,11.25
2022-10-30T03:17:01.937Z,10.10
2022-10-30T03:19:30.499Z,10.27
2022-10-30T03:21:58.989Z,10.60
2022-10-30T03:24:27.593Z,10.80
2022-10-30T03:27:06.859Z,11.30
2022-10-30T03:29:35.379Z,10.45
2022-10-30T03:32:10.034Z,10.15
2022-10-30T03:34:45.903Z,11.25
2022-10-30T03:37:14.223Z,10.68
2022-10-30T03:39:44.880Z,11.10
2022-10-30T03:44:41.803Z,10.52
2022-10-30T03:49:42.792Z,11.15
2022-10-30T03:52:16.022Z,11.18
2022-10-30T03:54:47.874Z,11.70
2022-10-30T04:00:10.804Z,11.18
2022-10-30T04:02:57.016Z,10.73
2022-10-30T04:05:28.280Z,11.88
2022-10-30T04:08:00.667Z,11.18
2022-10-30T04:10:34.761Z,11.30
2022-10-30T04:13:07.355Z,11.82
2022-10-30T04:15:39.716Z,12.40
2022-10-30T04:18:11.915Z,10.82
2022-10-30T04:20:40.547Z,11.18
2022-10-30T04:23:13.940Z,11.13
2022-10-30T04:25:42.496Z,11.55
2022-10-30T04:28:14.684Z,11.52
2022-10-30T04:30:45.812Z,10.93
2022-10-30T04:33:15.802Z,10.95
2022-10-30T04:35:44.582Z,10.65
2022-10-30T04:38:19.830Z,11.68
2022-10-30T04:40:49.575Z,11.10
2022-10-30T04:43:20.282Z,11.32
2022-10-30T04:45:53.545Z,11.13
2022-10-30T04:48:21.889Z,11.32
2022-10-30T04:50:50.367Z,12.68
2022-10-30T04:53:26.324Z,15.18
2022-10-30T04:56:01.406Z,12.60
2022-10-30T04:58:30.780Z,11.70
2022-10-30T05:01:06.921Z,10.98
2022-10-30T05:03:36.443Z,10.75
2022-10-30T05:06:22.146Z,10.25
2022-10-30T05:08:51.104Z,11.60
2022-10-30T05:11:41.159Z,11.95
2022-10-30T05:14:09.857Z,12.00
2022-10-30T05:16:39.471Z,12.25
2022-10-30T05:19:08.819Z,11.45
2022-10-30T05:21:37.476Z,11.07
2022-10-30T05:24:06.585Z,11.60
2022-10-30T05:26:43.686Z,12.32
2022-10-30T05:29:14.295Z,12.18
2022-10-30T05:31:42.986Z,13.13
2022-10-30T05:34:14.568Z,14.57
2022-10-30T05:36:43.986Z,12.38
2022-10-30T05:39:15.188Z,13.07
2022-10-30T05:41:46.995Z,11.35
2022-10-30T05:44:18.105Z,12.52
2022-10-30T05:46:57.244Z,12.45
2022-10-30T05:49:29.483Z,13.10
2022-10-30T05:51:59.233Z,12.48
2022-10-30T05:54:28.543Z,12.25
2022-10-30T05:57:15.644Z,12.50
2022-10-30T05:59:45.792Z,12.50
2022-10-30T06:02:17.390Z,14.98
2022-10-30T06:07:15.370Z,13.57
2022-10-30T06:09:44.010Z,12.63
2022-10-30T06:12:12.452Z,13.38
2022-10-30T06:15:07.357Z,12.45
2022-10-30T06:17:35.736Z,13.13
2022-10-30T06:20:19.997Z,14.05
2022-10-30T06:23:18.281Z,12.93
2022-10-30T06:26:18.964Z,12.60
2022-10-30T06:28:52.831Z,13.55
2022-10-30T06:33:55.181Z,14.77
2022-10-30T06:36:23.813Z,13.75
2022-10-30T06:38:52.250Z,13.73
2022-10-30T06:41:27.524Z,14.00
2022-10-30T06:44:23.040Z,12.82
2022-10-30T06:46:53.496Z,13.45
2022-10-30T06:49:22.015Z,12.73
2022-10-30T06:51:51.438Z,13.23
2022-10-30T06:54:19.703Z,13.18
2022-10-30T06:57:08.101Z,13.85
2022-10-30T06:59:55.160Z,13.25
2022-10-30T07:02:43.837Z,12.80
2022-10-30T07:05:17.324Z,12.63
2022-10-30T07:07:45.652Z,12.25
2022-10-30T07:10:15.116Z,13.02
2022-10-30T07:13:04.913Z,12.68
2022-10-30T07:15:46.651Z,12.40
2022-10-30T07:18:25.177Z,12.65
2022-10-30T07:20:57.895Z,12.40
2022-10-30T07:23:27.281Z,13.85
2022-10-30T07:26:04.339Z,12.48
2022-10-30T07:31:34.771Z,12.68
2022-10-30T07:34:28.447Z,12.25
2022-10-30T07:37:26.185Z,12.43
2022-10-30T07:40:20.713Z,13.32
2022-10-30T07:43:00.600Z,13.90
2022-10-30T07:45:57.770Z,12.95
2022-10-30T07:48:34.785Z,12.38
2022-10-30T07:51:23.439Z,14.05
2022-10-30T07:53:51.869Z,12.50
2022-10-30T07:56:21.677Z,13.65
2022-10-30T07:58:52.727Z,12.60
2022-10-30T08:01:33.334Z,14.10
2022-10-30T08:04:15.162Z,14.07
2022-10-30T08:06:44.296Z,14.25
2022-10-30T08:09:12.814Z,13.10
2022-10-30T08:11:41.937Z,13.25
2022-10-30T08:14:10.293Z,14.43
2022-10-30T08:16:38.762Z,13.43
2022-10-30T08:19:07.151Z,13.25
2022-10-30T08:21:35.897Z,12.65
2022-10-30T08:24:15.057Z,13.02
2022-10-30T08:26:47.057Z,15.15
2022-10-30T08:29:16.012Z,13.30
2022-10-30T08:31:49.032Z,13.98
2022-10-30T08:34:24.203Z,13.85
2022-10-30T08:39:22.813Z,12.40
2022-10-30T08:42:09.772Z,13.45
2022-10-30T08:44:44.931Z,12.05
2022-10-30T08:47:25.375Z,12.52
2022-10-30T08:49:57.957Z,16.30
2022-10-30T08:52:30.821Z,17.25
2022-10-30T08:54:59.299Z,16.80
2022-10-30T08:57:28.778Z,13.77
2022-10-30T08:59:58.933Z,12.73
2022-10-30T09:02:45.969Z,13.45
2022-10-30T09:05:33.035Z,12.75
2022-10-30T09:08:19.863Z,12.10
2022-10-30T09:11:04.114Z,11.98
2022-10-30T09:13:33.200Z,13.35
2022-10-30T09:16:03.934Z,12.75
2022-10-30T09:18:35.183Z,11.98
2022-10-30T09:21:05.131Z,12.85
2022-10-30T09:23:39.248Z,11.93
2022-10-30T09:26:30.419Z,11.60
2022-10-30T09:29:15.585Z,12.00
2022-10-30T09:31:44.127Z,12.40
2022-10-30T09:34:16.609Z,11.85
2022-10-30T09:36:49.787Z,12.27
2022-10-30T09:39:19.865Z,12.05
2022-10-30T09:42:16.467Z,10.80
2022-10-30T09:45:15.236Z,10.85
2022-10-30T09:48:03.605Z,10.68
2022-10-30T09:51:26.364Z,11.63
2022-10-30T09:54:11.710Z,11.05
2022-10-30T09:57:02.288Z,11.77
2022-10-30T09:59:35.892Z,10.85
2022-10-30T10:02:18.069Z,10.68
2022-10-30T10:04:58.018Z,10.43
2022-10-30T10:07:49.160Z,10.30
2022-10-30T10:10:41.853Z,11.07
2022-10-30T10:13:26.503Z,11.35
2022-10-30T10:16:14.057Z,9.82
2022-10-30T10:18:58.534Z,10.82
2022-10-30T10:21:29.346Z,10.23
2022-10-30T10:24:03.644Z,9.07
2022-10-30T10:27:10.622Z,9.70
2022-10-30T10:29:53.625Z,8.95
2022-10-30T10:32:21.980Z,10.07
2022-10-30T10:34:54.308Z,9.82
2022-10-30T10:37:28.318Z,9.25
2022-10-30T10:40:15.825Z,9.65
2022-10-30T10:42:53.904Z,9.80
2022-10-30T10:45:28.585Z,9.02
2022-10-30T10:50:51.573Z,8.88
2022-10-30T10:53:31.050Z,9.07
2022-10-30T10:56:01.129Z,9.15
2022-10-30T10:58:50.422Z,8.32
2022-10-30T11:01:23.666Z,8.93
2022-10-30T11:03:58.174Z,9.18
2022-10-30T11:06:40.028Z,9.95
2022-10-30T11:09:20.346Z,8.52
2022-10-30T11:11:50.456Z,8.20
2022-10-30T11:14:29.331Z,8.52
2022-10-30T11:17:03.739Z,8.43
2022-10-30T11:19:32.620Z,9.45
2022-10-30T11:22:02.397Z,8.93
2022-10-30T11:24:33.205Z,8.85
2022-10-30T11:27:24.368Z,8.55
2022-10-30T11:30:01.338Z,8.27
2022-10-30T11:32:32.850Z,7.57
2022-10-30T11:35:07.646Z,8.02
2022-10-30T11:37:40.245Z,8.48
2022-10-30T11:40:12.536Z,8.13
2022-10-30T11:43:02.925Z,8.13
2022-10-30T11:48:31.974Z,6.82
2022-10-30T11:51:02.326Z,7.13
2022-10-30T11:53:36.494Z,6.60
2022-10-30T11:56:15.412Z,7.18
2022-10-30T11:58:48.400Z,7.03
2022-10-30T12:01:30.743Z,7.20
2022-10-30T12:04:35.041Z,7.50
2022-10-30T12:07:25.276Z,7.28
2022-10-30T12:09:54.854Z,8.13
2022-10-30T12:12:42.629Z,9.13
2022-10-30T12:15:22.943Z,7.60
2022-10-30T12:18:02.712Z,6.85
2022-10-30T12:20:33.196Z,7.18
2022-10-30T12:25:49.086Z,6.90
2022-10-30T12:28:23.229Z,7.00
2022-10-30T12:30:57.943Z,7.55
2022-10-30T12:33:39.177Z,6.95
2022-10-30T12:36:14.150Z,7.40
2022-10-30T12:39:09.466Z,6.50
2022-10-30T12:41:46.006Z,8.88
2022-10-30T12:44:18.856Z,7.72
2022-10-30T12:46:56.325Z,7.25
2022-10-30T12:49:53.031Z,7.65
2022-10-30T12:52:45.798Z,7.50
2022-10-30T12:55:27.910Z,7.35
2022-10-30T12:58:06.129Z,6.68
2022-10-30T13:00:44.750Z,6.85
2022-10-30T13:03:28.505Z,7.90
2022-10-30T13:06:19.243Z,7.70
2022-10-30T13:12:08.293Z,7.45
2022-10-30T13:14:43.784Z,7.05
2022-10-30T13:17:13.859Z,8.75
2022-10-30T13:19:51.083Z,8.48
2022-10-30T13:22:20.229Z,7.93
2022-10-30T13:24:56.801Z,9.05
2022-10-30T13:27:44.520Z,8.77
2022-10-30T13:30:16.794Z,9.52
2022-10-30T13:32:51.570Z,10.02
2022-10-30T13:35:26.115Z,8.23
2022-10-30T13:38:02.085Z,9.63
2022-10-30T13:41:07.310Z,8.77
2022-10-30T13:43:48.884Z,9.20
2022-10-30T13:47:00.094Z,9.05
2022-10-30T13:49:46.731Z,9.40
2022-10-30T13:52:17.835Z,9.30
2022-10-30T13:55:07.939Z,9.55
2022-10-30T13:58:03.349Z,12.60
2022-10-30T14:00:53.105Z,9.52
2022-10-30T14:04:01.070Z,9.70
2022-10-30T14:06:40.254Z,9.73
2022-10-30T14:09:22.739Z,8.48
2022-10-30T14:11:54.979Z,8.77
2022-10-30T14:14:30.386Z,10.07
2022-10-30T14:17:12.267Z,9.50
2022-10-30T14:20:22.723Z,8.73
2022-10-30T14:23:13.520Z,9.30
2022-10-30T14:25:42.859Z,8.93
2022-10-30T14:28:21.381Z,9.02
2022-10-30T14:31:06.247Z,10.25
2022-10-30T14:33:40.865Z,9.05
2022-10-30T14:36:13.129Z,8.90
2022-10-30T14:38:51.726Z,8.65
2022-10-30T14:41:39.443Z,9.98
2022-10-30T14:44:29.165Z,9.13
2022-10-30T14:47:19.489Z,8.57
2022-10-30T14:49:57.571Z,8.52
2022-10-30T14:53:19.221Z,8.35
2022-10-30T14:55:52.789Z,8.25
2022-10-30T14:58:25.483Z,7.93
2022-10-30T15:01:14.230Z,8.50
2022-10-30T15:03:45.585Z,9.60
2022-10-30T15:06:41.210Z,8.10
2022-10-30T15:09:36.268Z,9.18
2022-10-30T15:12:38.184Z,8.35
2022-10-30T15:15:13.454Z,9.00
2022-10-30T15:17:45.813Z,8.38
2022-10-30T15:20:21.801Z,8.07
2022-10-30T15:22:58.322Z,8.40
2022-10-30T15:25:37.015Z,8.85
2022-10-30T15:28:16.927Z,9.70
2022-10-30T15:31:14.510Z,8.65
2022-10-30T15:33:42.871Z,8.55
2022-10-30T15:36:20.132Z,9.10
2022-10-30T15:39:09.169Z,8.75
2022-10-30T15:41:44.363Z,9.95
2022-10-30T15:44:18.340Z,8.75
2022-10-30T15:46:49.002Z,9.90
2022-10-30T15:51:49.779Z,9.30
2022-10-30T15:54:21.285Z,9.00
2022-10-30T15:57:31.235Z,10.30
2022-10-30T15:59:53.485Z,8.07
2022-10-30T16:02:24.058Z,9.65
2022-10-30T16:04:53.505Z,9.63
2022-10-30T16:07:24.368Z,10.05
2022-10-30T16:09:58.716Z,9.48
2022-10-30T16:12:33.576Z,8.13
2022-10-30T16:15:28.071Z,9.65
2022-10-30T16:18:30.725Z,10.57
2022-10-30T16:21:07.261Z,10.32
2022-10-30T16:23:41.584Z,11.55
2022-10-30T16:26:24.830Z,11.57
2022-10-30T16:28:53.161Z,19.23
2022-10-30T16:31:21.920Z,11.90
2022-10-30T16:33:50.771Z,33.85
2022-10-30T16:36:19.828Z,21.45
2022-10-30T16:38:50.222Z,21.08
2022-10-30T16:41:24.185Z,17.85
2022-10-30T16:44:14.057Z,15.35
2022-10-30T16:46:55.561Z,13.65
2022-10-30T16:49:28.878Z,13.75
2022-10-30T16:52:04.689Z,13.35
2022-10-30T16:54:37.349Z,13.20
2022-10-30T16:57:22.543Z,13.90
2022-10-30T16:59:52.277Z,12.85
2022-10-30T17:02:25.939Z,14.23
2022-10-30T17:05:08.652Z,12.63
2022-10-30T17:07:38.589Z,12.73
2022-10-30T17:10:58.095Z,13.10
2022-10-30T17:13:38.290Z,14.80
2022-10-30T17:16:20.324Z,14.45
2022-10-30T17:18:55.565Z,13.45
2022-10-30T17:21:36.945Z,13.27
2022-10-30T17:24:06.204Z,15.05
2022-10-30T17:26:41.364Z,16.40
2022-10-30T17:29:38.308Z,20.75
2022-10-30T17:32:23.494Z,16.52
2022-10-30T17:35:02.285Z,16.58
2022-10-30T17:37:30.624Z,18.35
2022-10-30T17:39:59.152Z,18.73
2022-10-30T17:42:27.414Z,18.10
2022-10-30T17:44:56.064Z,18.33
2022-10-30T17:47:26.283Z,17.80
2022-10-30T17:49:54.844Z,19.80
2022-10-30T17:52:23.222Z,18.05
2022-10-30T17:54:51.642Z,19.75
2022-10-30T17:57:20.116Z,19.88
2022-10-30T17:59:48.454Z,18.88
2022-10-30T18:02:22.412Z,18.45
2022-10-30T18:04:52.718Z,19.35
2022-10-30T18:07:21.061Z,19.35
2022-10-30T18:09:49.416Z,16.95
2022-10-30T18:12:19.319Z,15.77
2022-10-30T18:14:50.387Z,15.68
2022-10-30T18:17:18.791Z,14.85
2022-10-30T18:19:48.276Z,15.45
2022-10-30T18:22:16.631Z,14.35
2022-10-30T18:24:44.881Z,13.43
2022-10-30T18:27:13.348Z,15.13
2022-10-30T18:29:42.488Z,16.10
2022-10-30T18:32:10.950Z,17.35
2022-10-30T18:34:39.199Z,17.27
2022-10-30T18:37:08.595Z,15.32
2022-10-30T18:42:10.159Z,15.48
2022-10-30T18:44:38.573Z,15.63
2022-10-30T18:47:11.154Z,16.13
2022-10-30T18:49:39.518Z,16.65
2022-10-30T18:52:09.029Z,14.98
2022-10-30T18:54:37.310Z,15.63
2022-10-30T18:57:05.801Z,14.82
2022-10-30T18:59:34.974Z,16.48
2022-10-30T19:02:03.763Z,16.52
2022-10-30T19:04:32.284Z,16.73
2022-10-30T19:07:00.630Z,20.70
2022-10-30T19:09:28.943Z,18.63
2022-10-30T19:11:57.290Z,16.08
2022-10-30T19:14:25.615Z,16.75
2022-10-30T19:16:53.999Z,16.65
2022-10-30T19:19:22.393Z,17.15
2022-10-30T19:21:52.480Z,15.30
2022-10-30T19:24:20.833Z,15.43
2022-10-30T19:26:50.535Z,15.00
2022-10-30T19:29:18.863Z,16.77
2022-10-30T19:31:47.273Z,15.98
2022-10-30T19:34:15.610Z,16.88
2022-10-30T19:36:43.995Z,19.40
2022-10-30T19:39:16.873Z,18.58
2022-10-30T19:41:45.360Z,19.58
2022-10-30T19:44:13.625Z,19.70
2022-10-30T19:46:42.154Z,20.67
2022-10-30T19:49:18.530Z,20.67
2022-10-30T19:51:47.354Z,22.45
2022-10-30T19:54:16.234Z,23.13
2022-10-30T19:56:44.794Z,22.23
2022-10-30T19:59:14.531Z,23.55
2022-10-30T20:01:44.722Z,23.93
2022-10-30T20:04:13.699Z,23.75
2022-10-30T20:06:42.152Z,25.30
2022-10-30T20:09:12.395Z,23.52
2022-10-30T20:11:40.774Z,22.95
2022-10-30T20:14:09.491Z,21.85
2022-10-30T20:16:38.058Z,22.17
2022-10-30T20:19:27.706Z,23.27
2022-10-30T20:21:56.284Z,23.38
2022-10-30T20:24:24.614Z,23.33
2022-10-30T20:26:55.811Z,20.90
2022-10-30T20:29:25.066Z,22.92
2022-10-30T20:31:53.555Z,21.67
2022-10-30T20:34:22.236Z,20.58
2022-10-30T20:36:50.538Z,22.10
2022-10-30T20:39:18.874Z,21.50
2022-10-30T20:41:47.316Z,22.77
2022-10-30T20:44:16.671Z,22.67
2022-10-30T20:46:45.183Z,20.10
2022-10-30T20:49:18.481Z,21.50
2022-10-30T20:51:47.814Z,21.08
2022-10-30T20:54:17.551Z,18.77
2022-10-30T20:56:45.890Z,19.58
2022-10-30T20:59:14.239Z,22.60
2022-10-30T21:01:42.758Z,20.98
2022-10-30T21:04:11.139Z,21.55
2022-10-30T21:06:39.823Z,19.80
2022-10-30T21:09:08.171Z,19.48
2022-10-30T21:11:36.550Z,20.17
2022-10-30T21:14:04.813Z,21.23
2022-10-30T21:16:33.652Z,21.67
2022-10-30T21:19:02.055Z,20.30
2022-10-30T21:21:30.328Z,20.08
2022-10-30T21:23:58.772Z,22.40
2022-10-30T21:26:27.125Z,21.40
2022-10-30T21:28:55.660Z,22.17
2022-10-30T21:31:26.103Z,22.10
2022-10-30T21:33:54.557Z,23.05
2022-10-30T21:36:23.457Z,22.95
2022-10-30T21:38:51.754Z,20.17
2022-10-30T21:41:22.190Z,19.48
2022-10-30T21:43:59.232Z,19.88
2022-10-30T21:46:30.147Z,19.08
2022-10-30T21:49:07.185Z,18.67
2022-10-30T21:51:35.626Z,16.95
2022-10-30T21:54:06.274Z,17.00
2022-10-30T21:59:05.111Z,15.70
2022-10-30T22:01:37.190Z,16.08
2022-10-30T22:04:08.767Z,16.33
2022-10-30T22:06:42.950Z,14.63
2022-10-30T22:09:15.356Z,16.65
2022-10-30T22:11:43.931Z,15.05
2022-10-30T22:14:12.217Z,15.80
2022-10-30T22:16:40.756Z,15.38
2022-10-30T22:19:10.514Z,14.95
2022-10-30T22:21:38.839Z,15.30
2022-10-30T22:24:07.431Z,14.88
2022-10-30T22:26:35.862Z,16.10
2022-10-30T22:29:04.190Z,15.52
2022-10-30T22:31:32.504Z,16.27
2022-10-30T22:34:01.599Z,16.23
2022-10-30T22:36:32.165Z,17.40
2022-10-30T22:39:01.822Z,16.50
2022-10-30T22:41:34.500Z,16.92
2022-10-30T22:44:15.133Z,16.75
2022-10-30T22:46:43.535Z,19.27
2022-10-30T22:49:12.195Z,16.67
2022-10-30T22:51:40.712Z,18.17
2022-10-30T22:54:12.514Z,17.90
2022-10-30T22:56:41.702Z,18.45
2022-10-30T22:59:13.472Z,19.15
2022-10-30T23:01:42.096Z,17.50
2022-10-30T23:04:11.956Z,15.73
2022-10-30T23:06:40.294Z,15.57
2022-10-30T23:09:15.139Z,16.55
2022-10-30T23:11:43.933Z,15.80
2022-10-30T23:14:12.327Z,16.98
2022-10-30T23:16:41.111Z,17.73
2022-10-30T23:19:11.244Z,17.98
2022-10-30T23:21:39.710Z,16.73
2022-10-30T23:24:08.054Z,17.10
2022-10-30T23:26:36.545Z,17.70
2022-10-30T23:29:05.404Z,15.82
2022-10-30T23:31:40.444Z,15.82
2022-10-30T23:34:12.373Z,16.48
2022-10-30T23:36:42.040Z,16.83
2022-10-30T23:39:14.926Z,14.13
2022-10-30T23:41:43.524Z,14.70
2022-10-30T23:44:14.358Z,14.68
2022-10-30T23:46:43.499Z,14.10
2022-10-30T23:49:11.791Z,14.73
2022-10-30T23:51:40.084Z,15.43
2022-10-30T23:54:08.866Z,15.88
2022-10-30T23:56:37.131Z,15.57
2022-10-30T23:59:07.564Z,15.07
